地図

経路データ

SID SEASON NUMBER BASIN SUBBASIN NAME ISO_TIME NATURE LAT LON WMO_WIND WMO_PRES WMO_AGENCY TRACK_TYPE DIST2LAND LANDFALL IFLAG USA_AGENCY USA_ATCF_ID USA_LAT USA_LON USA_RECORD USA_STATUS USA_WIND USA_PRES USA_SSHS USA_R34_NE USA_R34_SE USA_R34_SW USA_R34_NW USA_R50_NE USA_R50_SE USA_R50_SW USA_R50_NW USA_R64_NE USA_R64_SE USA_R64_SW USA_R64_NW USA_POCI USA_ROCI USA_RMW USA_EYE TOKYO_LAT TOKYO_LON TOKYO_GRADE TOKYO_WIND TOKYO_PRES TOKYO_R50_DIR TOKYO_R50_LONG TOKYO_R50_SHORT TOKYO_R30_DIR TOKYO_R30_LONG TOKYO_R30_SHORT TOKYO_LAND CMA_LAT CMA_LON CMA_CAT CMA_WIND CMA_PRES HKO_LAT HKO_LON HKO_CAT HKO_WIND HKO_PRES NEWDELHI_LAT NEWDELHI_LON NEWDELHI_GRADE NEWDELHI_WIND NEWDELHI_PRES NEWDELHI_CI NEWDELHI_DP NEWDELHI_POCI REUNION_LAT REUNION_LON REUNION_TYPE REUNION_WIND REUNION_PRES REUNION_TNUM REUNION_CI REUNION_RMW REUNION_R34_NE REUNION_R34_SE REUNION_R34_SW REUNION_R34_NW REUNION_R50_NE REUNION_R50_SE REUNION_R50_SW REUNION_R50_NW REUNION_R64_NE REUNION_R64_SE REUNION_R64_SW REUNION_R64_NW BOM_LAT BOM_LON BOM_TYPE BOM_WIND BOM_PRES BOM_TNUM BOM_CI BOM_RMW BOM_R34_NE BOM_R34_SE BOM_R34_SW BOM_R34_NW BOM_R50_NE BOM_R50_SE BOM_R50_SW BOM_R50_NW BOM_R64_NE BOM_R64_SE BOM_R64_SW BOM_R64_NW BOM_ROCI BOM_POCI BOM_EYE BOM_POS_METHOD BOM_PRES_METHOD NADI_LAT NADI_LON NADI_CAT NADI_WIND NADI_PRES WELLINGTON_LAT WELLINGTON_LON WELLINGTON_WIND WELLINGTON_PRES DS824_LAT DS824_LON DS824_STAGE DS824_WIND DS824_PRES TD9636_LAT TD9636_LON TD9636_STAGE TD9636_WIND TD9636_PRES TD9635_LAT TD9635_LON TD9635_WIND TD9635_PRES TD9635_ROCI NEUMANN_LAT NEUMANN_LON NEUMANN_CLASS NEUMANN_WIND NEUMANN_PRES MLC_LAT MLC_LON MLC_CLASS MLC_WIND MLC_PRES USA_GUST BOM_GUST BOM_GUST_PER REUNION_GUST REUNION_GUST_PER USA_SEAHGT USA_SEARAD_NE USA_SEARAD_SE USA_SEARAD_SW USA_SEARAD_NW STORM_SPEED STORM_DIR
1922074S14126 1922 21 SI WA NOT_NAMED 1922-03-14 23:00:00 NR -13.6000 126.400 main 44 44 __________O___ -1 -13.6000 126.400 7 1 0
1922074S14126 1922 21 SI WA NOT_NAMED 1922-03-15 00:00:00 NR -13.6083 126.379 main 44 44 __________P___ -1 -13.6083 126.379 7 1 248
1922074S14126 1922 21 SI WA NOT_NAMED 1922-03-15 03:00:00 NR -13.6334 126.318 main 44 33 __________P___ -1 -13.6334 126.318 7 1 246
1922074S14126 1922 21 SI WA NOT_NAMED 1922-03-15 06:00:00 NR -13.6584 126.263 main 33 33 __________P___ -1 -13.6584 126.263 7 1 243
1922074S14126 1922 21 SI WA NOT_NAMED 1922-03-15 09:00:00 NR -13.6834 126.220 main 35 35 __________P___ -1 -13.6834 126.220 7 1 233
1922074S14126 1922 21 SI WA NOT_NAMED 1922-03-15 11:00:00 NR -13.7000 126.200 main 35 35 __________O___ -1 -13.7000 126.200 7 1 0
1922074S14126 1922 21 SI WA NOT_NAMED 1922-03-15 12:00:00 NR -13.7083 126.193 main 35 35 __________P___ -1 -13.7083 126.193 7 1 213
1922074S14126 1922 21 SI WA NOT_NAMED 1922-03-15 15:00:00 NR -13.7333 126.180 main 35 24 __________P___ -1 -13.7333 126.180 7 1 207
1922074S14126 1922 21 SI WA NOT_NAMED 1922-03-15 18:00:00 NR -13.7583 126.167 main 24 22 __________P___ -1 -13.7583 126.167 7 1 223
1922074S14126 1922 21 SI WA NOT_NAMED 1922-03-15 21:00:00 NR -13.7833 126.137 main 22 22 __________P___ -1 -13.7833 126.137 7 1 238
1922074S14126 1922 21 SI WA NOT_NAMED 1922-03-15 23:00:00 NR -13.8000 126.100 main 22 22 __________O___ -1 -13.8000 126.100 7 1 243
1922074S14126 1922 21 SI WA NOT_NAMED 1922-03-16 00:00:00 NR -13.8083 126.073 main 22 22 __________P___ -1 -13.8083 126.073 7 2 255
1922074S14126 1922 21 SI WA NOT_NAMED 1922-03-16 03:00:00 NR -13.8333 125.970 main 24 24 __________P___ -1 -13.8333 125.970 7 2 257
1922074S14126 1922 21 SI WA NOT_NAMED 1922-03-16 06:00:00 NR -13.8583 125.843 main 31 31 __________P___ -1 -13.8583 125.843 7 3 259
1922074S14126 1922 21 SI WA NOT_NAMED 1922-03-16 09:00:00 NR -13.8833 125.700 main 39 39 __________P___ -1 -13.8833 125.700 7 3 260
1922074S14126 1922 21 SI WA NOT_NAMED 1922-03-16 11:00:00 NR -13.9000 125.600 main 44 44 __________O___ -1 -13.9000 125.600 7 3 260
1922074S14126 1922 21 SI WA NOT_NAMED 1922-03-16 12:00:00 NR -13.9083 125.550 main 44 44 __________P___ -1 -13.9083 125.550 7 3 260
1922074S14126 1922 21 SI WA NOT_NAMED 1922-03-16 15:00:00 NR -13.9334 125.400 main 49 46 __________P___ -1 -13.9334 125.400 7 3 260
1922074S14126 1922 21 SI WA NOT_NAMED 1922-03-16 18:00:00 NR -13.9584 125.250 main 46 46 __________P___ -1 -13.9584 125.250 7 3 260
1922074S14126 1922 21 SI WA NOT_NAMED 1922-03-16 21:00:00 NR -13.9834 125.100 main 63 63 __________P___ -1 -13.9834 125.100 7 3 260
1922074S14126 1922 21 SI WA NOT_NAMED 1922-03-16 23:00:00 NR -14.0000 125.000 main 70 __________O___ -1 -14.0000 125.000 7 3 260

IBTrACS Databaseについて

本データベースは、米国NOAAが公開する1842年以降の世界の熱帯低気圧のベストトラックデータアーカイブInternational Best Track Archive for Climate Stewardship (IBTrACS)を、ウェブで閲覧しやすい形式に変換したものです。

最終更新日:2021-12-08